sensor_id;sensor_type;location;lat;lon;timestamp;temperature;humidity
5017;DHT22;2527;50.892;16.706;2024-02-04T00:01:42;12.70;99.90
5017;DHT22;2527;50.892;16.706;2024-02-04T00:04:07;12.70;99.90
5017;DHT22;2527;50.892;16.706;2024-02-04T00:06:33;12.70;99.90
5017;DHT22;2527;50.892;16.706;2024-02-04T00:09:00;12.70;99.90
5017;DHT22;2527;50.892;16.706;2024-02-04T00:11:29;12.70;99.90
5017;DHT22;2527;50.892;16.706;2024-02-04T00:13:54;12.70;99.90
5017;DHT22;2527;50.892;16.706;2024-02-04T00:16:20;12.70;99.90
5017;DHT22;2527;50.892;16.706;2024-02-04T00:18:46;12.60;99.90
5017;DHT22;2527;50.892;16.706;2024-02-04T00:21:11;12.70;99.90
5017;DHT22;2527;50.892;16.706;2024-02-04T00:23:38;12.60;99.90
5017;DHT22;2527;50.892;16.706;2024-02-04T00:26:04;12.60;99.90
5017;DHT22;2527;50.892;16.706;2024-02-04T00:28:30;12.60;99.90
5017;DHT22;2527;50.892;16.706;2024-02-04T00:30:56;12.60;99.90
5017;DHT22;2527;50.892;16.706;2024-02-04T00:33:24;12.60;99.90
5017;DHT22;2527;50.892;16.706;2024-02-04T00:35:50;12.50;99.90
5017;DHT22;2527;50.892;16.706;2024-02-04T00:38:15;12.50;99.90
5017;DHT22;2527;50.892;16.706;2024-02-04T00:40:41;12.50;99.90
5017;DHT22;2527;50.892;16.706;2024-02-04T00:43:07;12.50;99.90
5017;DHT22;2527;50.892;16.706;2024-02-04T00:45:32;12.50;99.90
5017;DHT22;2527;50.892;16.706;2024-02-04T00:47:58;12.60;99.90
5017;DHT22;2527;50.892;16.706;2024-02-04T00:50:24;12.50;99.90
5017;DHT22;2527;50.892;16.706;2024-02-04T00:52:53;12.50;99.90
5017;DHT22;2527;50.892;16.706;2024-02-04T00:55:19;12.50;99.90
5017;DHT22;2527;50.892;16.706;2024-02-04T00:57:45;12.50;99.90
5017;DHT22;2527;50.892;16.706;2024-02-04T01:00:11;12.50;99.90
5017;DHT22;2527;50.892;16.706;2024-02-04T01:02:39;12.40;99.90
5017;DHT22;2527;50.892;16.706;2024-02-04T01:05:05;12.40;99.90
5017;DHT22;2527;50.892;16.706;2024-02-04T01:07:30;12.40;99.90
5017;DHT22;2527;50.892;16.706;2024-02-04T01:09:56;12.40;99.90
5017;DHT22;2527;50.892;16.706;2024-02-04T01:12:22;12.40;99.90
5017;DHT22;2527;50.892;16.706;2024-02-04T01:14:48;12.40;99.90
5017;DHT22;2527;50.892;16.706;2024-02-04T01:17:14;12.30;99.90
5017;DHT22;2527;50.892;16.706;2024-02-04T01:19:39;12.30;99.90
5017;DHT22;2527;50.892;16.706;2024-02-04T01:22:05;12.40;99.90
5017;DHT22;2527;50.892;16.706;2024-02-04T01:24:31;12.30;99.90
5017;DHT22;2527;50.892;16.706;2024-02-04T01:26:57;12.30;99.90
5017;DHT22;2527;50.892;16.706;2024-02-04T01:29:22;12.40;99.90
5017;DHT22;2527;50.892;16.706;2024-02-04T01:31:48;12.30;99.90
5017;DHT22;2527;50.892;16.706;2024-02-04T01:34:17;12.30;99.90
5017;DHT22;2527;50.892;16.706;2024-02-04T01:36:43;12.30;99.90
5017;DHT22;2527;50.892;16.706;2024-02-04T01:39:09;12.30;99.90
5017;DHT22;2527;50.892;16.706;2024-02-04T01:41:36;12.30;99.90
5017;DHT22;2527;50.892;16.706;2024-02-04T01:44:01;12.30;99.90
5017;DHT22;2527;50.892;16.706;2024-02-04T01:46:27;12.30;99.90
5017;DHT22;2527;50.892;16.706;2024-02-04T01:48:53;12.30;99.90
5017;DHT22;2527;50.892;16.706;2024-02-04T01:51:21;12.30;99.90
5017;DHT22;2527;50.892;16.706;2024-02-04T01:53:46;12.20;99.90
5017;DHT22;2527;50.892;16.706;2024-02-04T01:56:13;12.30;99.90
5017;DHT22;2527;50.892;16.706;2024-02-04T01:58:39;12.20;99.90
5017;DHT22;2527;50.892;16.706;2024-02-04T02:01:04;12.20;99.90
5017;DHT22;2527;50.892;16.706;2024-02-04T02:03:31;12.30;99.90
5017;DHT22;2527;50.892;16.706;2024-02-04T02:05:58;12.20;99.90
5017;DHT22;2527;50.892;16.706;2024-02-04T02:08:24;12.20;99.90
5017;DHT22;2527;50.892;16.706;2024-02-04T02:10:51;12.20;99.90
5017;DHT22;2527;50.892;16.706;2024-02-04T02:13:22;12.20;99.90
5017;DHT22;2527;50.892;16.706;2024-02-04T02:15:50;12.20;99.90
5017;DHT22;2527;50.892;16.706;2024-02-04T02:18:27;12.20;99.90
5017;DHT22;2527;50.892;16.706;2024-02-04T02:23:30;12.10;99.90
5017;DHT22;2527;50.892;16.706;2024-02-04T02:25:56;12.10;99.90
5017;DHT22;2527;50.892;16.706;2024-02-04T02:28:23;12.10;99.90
5017;DHT22;2527;50.892;16.706;2024-02-04T02:30:49;12.10;99.90
5017;DHT22;2527;50.892;16.706;2024-02-04T02:33:14;12.00;99.90
5017;DHT22;2527;50.892;16.706;2024-02-04T02:35:40;12.00;99.90
5017;DHT22;2527;50.892;16.706;2024-02-04T02:40:54;12.00;99.90
5017;DHT22;2527;50.892;16.706;2024-02-04T02:43:23;12.00;99.90
5017;DHT22;2527;50.892;16.706;2024-02-04T02:45:49;12.00;99.90
5017;DHT22;2527;50.892;16.706;2024-02-04T02:48:15;12.00;99.90
5017;DHT22;2527;50.892;16.706;2024-02-04T02:50:42;12.00;99.90
5017;DHT22;2527;50.892;16.706;2024-02-04T02:53:07;12.00;99.90
5017;DHT22;2527;50.892;16.706;2024-02-04T02:55:33;12.00;99.90
5017;DHT22;2527;50.892;16.706;2024-02-04T02:57:59;11.90;99.90
5017;DHT22;2527;50.892;16.706;2024-02-04T03:00:24;11.90;99.90
5017;DHT22;2527;50.892;16.706;2024-02-04T03:02:50;11.90;99.90
5017;DHT22;2527;50.892;16.706;2024-02-04T03:05:16;11.90;99.90
5017;DHT22;2527;50.892;16.706;2024-02-04T03:07:41;11.90;99.90
5017;DHT22;2527;50.892;16.706;2024-02-04T03:10:07;11.90;99.90
5017;DHT22;2527;50.892;16.706;2024-02-04T03:12:33;11.80;99.90
5017;DHT22;2527;50.892;16.706;2024-02-04T03:14:59;11.90;99.90
5017;DHT22;2527;50.892;16.706;2024-02-04T03:17:25;11.90;99.90
5017;DHT22;2527;50.892;16.706;2024-02-04T03:19:51;11.80;99.90
5017;DHT22;2527;50.892;16.706;2024-02-04T03:22:23;11.80;99.90
5017;DHT22;2527;50.892;16.706;2024-02-04T03:24:51;11.80;99.90
5017;DHT22;2527;50.892;16.706;2024-02-04T03:27:18;11.80;99.90
5017;DHT22;2527;50.892;16.706;2024-02-04T03:29:44;11.80;99.90
5017;DHT22;2527;50.892;16.706;2024-02-04T03:32:13;11.70;99.90
5017;DHT22;2527;50.892;16.706;2024-02-04T03:34:41;11.70;99.90
5017;DHT22;2527;50.892;16.706;2024-02-04T03:37:07;11.70;99.90
5017;DHT22;2527;50.892;16.706;2024-02-04T03:39:33;11.70;99.90
5017;DHT22;2527;50.892;16.706;2024-02-04T03:41:59;11.70;99.90
5017;DHT22;2527;50.892;16.706;2024-02-04T03:44:25;11.60;99.90
5017;DHT22;2527;50.892;16.706;2024-02-04T03:46:51;11.60;99.90
5017;DHT22;2527;50.892;16.706;2024-02-04T03:49:17;11.60;99.90
5017;DHT22;2527;50.892;16.706;2024-02-04T03:51:43;11.50;99.90
5017;DHT22;2527;50.892;16.706;2024-02-04T03:54:13;11.50;99.90
5017;DHT22;2527;50.892;16.706;2024-02-04T03:56:38;11.50;99.90
5017;DHT22;2527;50.892;16.706;2024-02-04T03:59:04;11.50;99.90
5017;DHT22;2527;50.892;16.706;2024-02-04T04:01:32;11.40;99.90
5017;DHT22;2527;50.892;16.706;2024-02-04T04:03:59;11.40;99.90
5017;DHT22;2527;50.892;16.706;2024-02-04T04:06:27;11.40;99.90
5017;DHT22;2527;50.892;16.706;2024-02-04T04:08:52;11.40;99.90
5017;DHT22;2527;50.892;16.706;2024-02-04T04:11:18;11.40;99.90
5017;DHT22;2527;50.892;16.706;2024-02-04T04:13:44;11.40;99.90
5017;DHT22;2527;50.892;16.706;2024-02-04T04:16:10;11.40;99.90
5017;DHT22;2527;50.892;16.706;2024-02-04T04:18:35;11.40;99.90
5017;DHT22;2527;50.892;16.706;2024-02-04T04:21:01;11.30;99.90
5017;DHT22;2527;50.892;16.706;2024-02-04T04:23:27;11.40;99.90
5017;DHT22;2527;50.892;16.706;2024-02-04T04:25:52;11.30;99.90
5017;DHT22;2527;50.892;16.706;2024-02-04T04:28:18;11.30;99.90
5017;DHT22;2527;50.892;16.706;2024-02-04T04:30:45;11.30;99.90
5017;DHT22;2527;50.892;16.706;2024-02-04T04:33:10;11.30;99.90
5017;DHT22;2527;50.892;16.706;2024-02-04T04:35:37;11.30;99.90
5017;DHT22;2527;50.892;16.706;2024-02-04T04:38:03;11.30;99.90
5017;DHT22;2527;50.892;16.706;2024-02-04T04:40:29;11.30;99.90
5017;DHT22;2527;50.892;16.706;2024-02-04T04:42:55;11.30;99.90
5017;DHT22;2527;50.892;16.706;2024-02-04T04:45:21;11.30;99.90
5017;DHT22;2527;50.892;16.706;2024-02-04T04:47:47;11.30;99.90
5017;DHT22;2527;50.892;16.706;2024-02-04T04:50:12;11.30;99.90
5017;DHT22;2527;50.892;16.706;2024-02-04T04:52:38;12.80;99.90
5017;DHT22;2527;50.892;16.706;2024-02-04T04:55:04;11.30;99.90
5017;DHT22;2527;50.892;16.706;2024-02-04T04:57:30;11.30;99.90
5017;DHT22;2527;50.892;16.706;2024-02-04T04:59:56;11.30;99.90
5017;DHT22;2527;50.892;16.706;2024-02-04T05:02:24;11.30;99.90
5017;DHT22;2527;50.892;16.706;2024-02-04T05:04:49;11.30;99.90
5017;DHT22;2527;50.892;16.706;2024-02-04T05:07:15;11.30;99.90
5017;DHT22;2527;50.892;16.706;2024-02-04T05:09:41;11.30;99.90
5017;DHT22;2527;50.892;16.706;2024-02-04T05:12:08;11.30;99.90
5017;DHT22;2527;50.892;16.706;2024-02-04T05:14:39;11.30;99.90
5017;DHT22;2527;50.892;16.706;2024-02-04T05:17:04;11.30;99.90
5017;DHT22;2527;50.892;16.706;2024-02-04T05:19:31;11.30;99.90
5017;DHT22;2527;50.892;16.706;2024-02-04T05:21:57;11.30;99.90
5017;DHT22;2527;50.892;16.706;2024-02-04T05:24:23;11.30;99.90
5017;DHT22;2527;50.892;16.706;2024-02-04T05:26:48;11.80;99.90
5017;DHT22;2527;50.892;16.706;2024-02-04T05:29:14;11.30;99.90
5017;DHT22;2527;50.892;16.706;2024-02-04T05:31:41;11.30;99.90
5017;DHT22;2527;50.892;16.706;2024-02-04T05:34:08;11.20;99.90
5017;DHT22;2527;50.892;16.706;2024-02-04T05:36:34;11.20;99.90
5017;DHT22;2527;50.892;16.706;2024-02-04T05:39:11;11.20;99.90
5017;DHT22;2527;50.892;16.706;2024-02-04T05:41:38;11.20;99.90
5017;DHT22;2527;50.892;16.706;2024-02-04T05:44:04;11.20;99.90
5017;DHT22;2527;50.892;16.706;2024-02-04T05:46:30;11.20;99.90
5017;DHT22;2527;50.892;16.706;2024-02-04T05:48:56;11.20;99.90
5017;DHT22;2527;50.892;16.706;2024-02-04T05:51:23;11.20;99.90
5017;DHT22;2527;50.892;16.706;2024-02-04T05:53:49;11.20;99.90
5017;DHT22;2527;50.892;16.706;2024-02-04T05:56:14;11.30;99.90
5017;DHT22;2527;50.892;16.706;2024-02-04T05:58:40;11.30;99.90
5017;DHT22;2527;50.892;16.706;2024-02-04T06:01:06;11.30;99.90
5017;DHT22;2527;50.892;16.706;2024-02-04T06:03:32;11.30;99.90
5017;DHT22;2527;50.892;16.706;2024-02-04T06:05:57;11.30;99.90
5017;DHT22;2527;50.892;16.706;2024-02-04T06:08:23;11.30;99.90
5017;DHT22;2527;50.892;16.706;2024-02-04T06:10:48;11.30;99.90
5017;DHT22;2527;50.892;16.706;2024-02-04T06:13:14;11.30;99.90
5017;DHT22;2527;50.892;16.706;2024-02-04T06:15:39;11.40;99.90
5017;DHT22;2527;50.892;16.706;2024-02-04T06:18:05;11.30;99.90
5017;DHT22;2527;50.892;16.706;2024-02-04T06:20:41;11.40;99.90
5017;DHT22;2527;50.892;16.706;2024-02-04T06:23:06;11.40;99.90
5017;DHT22;2527;50.892;16.706;2024-02-04T06:25:33;11.40;99.90
5017;DHT22;2527;50.892;16.706;2024-02-04T06:27:59;11.40;99.90
5017;DHT22;2527;50.892;16.706;2024-02-04T06:30:25;11.40;99.90
5017;DHT22;2527;50.892;16.706;2024-02-04T06:32:51;11.40;99.90
5017;DHT22;2527;50.892;16.706;2024-02-04T06:35:16;11.40;99.90
5017;DHT22;2527;50.892;16.706;2024-02-04T06:37:43;11.40;99.90
5017;DHT22;2527;50.892;16.706;2024-02-04T06:40:09;11.40;99.90
5017;DHT22;2527;50.892;16.706;2024-02-04T06:42:35;11.40;99.90
5017;DHT22;2527;50.892;16.706;2024-02-04T06:45:01;11.40;99.90
5017;DHT22;2527;50.892;16.706;2024-02-04T06:47:26;11.40;99.90
5017;DHT22;2527;50.892;16.706;2024-02-04T06:49:53;11.40;99.90
5017;DHT22;2527;50.892;16.706;2024-02-04T06:52:18;11.40;99.90
5017;DHT22;2527;50.892;16.706;2024-02-04T06:54:44;11.40;99.90
5017;DHT22;2527;50.892;16.706;2024-02-04T06:57:10;11.40;99.90
5017;DHT22;2527;50.892;16.706;2024-02-04T06:59:35;11.40;99.90
5017;DHT22;2527;50.892;16.706;2024-02-04T07:02:01;11.40;99.90
5017;DHT22;2527;50.892;16.706;2024-02-04T07:04:27;11.40;99.90
5017;DHT22;2527;50.892;16.706;2024-02-04T07:06:53;11.40;99.90
5017;DHT22;2527;50.892;16.706;2024-02-04T07:09:19;11.40;99.90
5017;DHT22;2527;50.892;16.706;2024-02-04T07:11:46;11.40;99.90
5017;DHT22;2527;50.892;16.706;2024-02-04T07:14:12;11.40;99.90
5017;DHT22;2527;50.892;16.706;2024-02-04T07:16:38;11.40;99.90
5017;DHT22;2527;50.892;16.706;2024-02-04T07:19:04;11.40;99.90
5017;DHT22;2527;50.892;16.706;2024-02-04T07:21:29;11.40;99.90
5017;DHT22;2527;50.892;16.706;2024-02-04T07:23:56;11.40;99.90
5017;DHT22;2527;50.892;16.706;2024-02-04T07:26:23;11.40;99.90
5017;DHT22;2527;50.892;16.706;2024-02-04T07:28:48;11.40;99.90
5017;DHT22;2527;50.892;16.706;2024-02-04T07:31:15;11.40;99.90
5017;DHT22;2527;50.892;16.706;2024-02-04T07:33:40;11.50;99.90
5017;DHT22;2527;50.892;16.706;2024-02-04T07:36:06;11.40;99.90
5017;DHT22;2527;50.892;16.706;2024-02-04T07:38:34;11.40;99.90
5017;DHT22;2527;50.892;16.706;2024-02-04T07:41:01;11.40;99.90
5017;DHT22;2527;50.892;16.706;2024-02-04T07:43:27;11.40;99.90
5017;DHT22;2527;50.892;16.706;2024-02-04T07:45:53;11.40;99.90
5017;DHT22;2527;50.892;16.706;2024-02-04T07:48:19;11.40;99.90
5017;DHT22;2527;50.892;16.706;2024-02-04T07:50:45;11.40;99.90
5017;DHT22;2527;50.892;16.706;2024-02-04T07:53:11;11.40;99.90
5017;DHT22;2527;50.892;16.706;2024-02-04T07:55:37;11.30;99.90
5017;DHT22;2527;50.892;16.706;2024-02-04T07:58:03;11.40;99.90
5017;DHT22;2527;50.892;16.706;2024-02-04T08:00:28;11.40;99.90
5017;DHT22;2527;50.892;16.706;2024-02-04T08:02:54;11.40;99.90
5017;DHT22;2527;50.892;16.706;2024-02-04T08:05:20;11.40;99.90
5017;DHT22;2527;50.892;16.706;2024-02-04T08:07:46;11.40;99.90
5017;DHT22;2527;50.892;16.706;2024-02-04T08:10:11;11.40;99.90
5017;DHT22;2527;50.892;16.706;2024-02-04T08:12:37;11.40;99.90
5017;DHT22;2527;50.892;16.706;2024-02-04T08:15:03;11.40;99.90
5017;DHT22;2527;50.892;16.706;2024-02-04T08:17:30;11.40;99.90
5017;DHT22;2527;50.892;16.706;2024-02-04T08:19:59;11.40;99.90
5017;DHT22;2527;50.892;16.706;2024-02-04T08:22:25;11.50;99.90
5017;DHT22;2527;50.892;16.706;2024-02-04T08:24:51;11.40;99.90
5017;DHT22;2527;50.892;16.706;2024-02-04T08:27:17;11.40;99.90
5017;DHT22;2527;50.892;16.706;2024-02-04T08:29:43;11.40;99.90
5017;DHT22;2527;50.892;16.706;2024-02-04T08:32:09;11.40;99.90
5017;DHT22;2527;50.892;16.706;2024-02-04T08:34:35;11.40;99.90
5017;DHT22;2527;50.892;16.706;2024-02-04T08:37:01;11.40;99.90
5017;DHT22;2527;50.892;16.706;2024-02-04T08:39:27;11.40;99.90
5017;DHT22;2527;50.892;16.706;2024-02-04T08:41:53;11.50;99.90
5017;DHT22;2527;50.892;16.706;2024-02-04T08:44:19;11.50;99.90
5017;DHT22;2527;50.892;16.706;2024-02-04T08:46:46;11.50;99.90
5017;DHT22;2527;50.892;16.706;2024-02-04T08:49:12;11.50;99.90
5017;DHT22;2527;50.892;16.706;2024-02-04T08:51:37;11.60;99.90
5017;DHT22;2527;50.892;16.706;2024-02-04T08:54:03;11.60;99.90
5017;DHT22;2527;50.892;16.706;2024-02-04T08:56:29;11.60;99.90
5017;DHT22;2527;50.892;16.706;2024-02-04T08:58:54;11.60;99.90
5017;DHT22;2527;50.892;16.706;2024-02-04T09:01:21;11.60;99.90
5017;DHT22;2527;50.892;16.706;2024-02-04T09:03:47;11.60;99.90
5017;DHT22;2527;50.892;16.706;2024-02-04T09:06:14;11.60;99.90
5017;DHT22;2527;50.892;16.706;2024-02-04T09:08:41;11.70;99.90
5017;DHT22;2527;50.892;16.706;2024-02-04T09:11:06;11.60;99.90
5017;DHT22;2527;50.892;16.706;2024-02-04T09:13:32;11.70;99.90
5017;DHT22;2527;50.892;16.706;2024-02-04T09:15:58;11.70;99.90
5017;DHT22;2527;50.892;16.706;2024-02-04T09:18:29;11.70;99.90
5017;DHT22;2527;50.892;16.706;2024-02-04T09:20:55;11.70;99.90
5017;DHT22;2527;50.892;16.706;2024-02-04T09:23:21;11.70;99.90
5017;DHT22;2527;50.892;16.706;2024-02-04T09:25:49;11.70;99.90
5017;DHT22;2527;50.892;16.706;2024-02-04T09:28:14;11.70;99.90
5017;DHT22;2527;50.892;16.706;2024-02-04T09:30:42;11.80;99.90
5017;DHT22;2527;50.892;16.706;2024-02-04T09:33:07;11.80;99.90
5017;DHT22;2527;50.892;16.706;2024-02-04T09:35:34;11.80;99.90
5017;DHT22;2527;50.892;16.706;2024-02-04T09:38:00;11.80;99.90
5017;DHT22;2527;50.892;16.706;2024-02-04T09:40:26;11.80;99.90
5017;DHT22;2527;50.892;16.706;2024-02-04T09:42:52;11.80;99.90
5017;DHT22;2527;50.892;16.706;2024-02-04T09:45:17;11.90;99.90
5017;DHT22;2527;50.892;16.706;2024-02-04T09:47:44;11.90;99.90
5017;DHT22;2527;50.892;16.706;2024-02-04T09:50:11;11.90;99.90
5017;DHT22;2527;50.892;16.706;2024-02-04T09:52:39;11.90;99.90
5017;DHT22;2527;50.892;16.706;2024-02-04T09:55:06;11.90;99.90
5017;DHT22;2527;50.892;16.706;2024-02-04T09:57:32;11.90;99.90
5017;DHT22;2527;50.892;16.706;2024-02-04T10:00:01;11.90;99.90
5017;DHT22;2527;50.892;16.706;2024-02-04T10:02:27;11.90;99.90
5017;DHT22;2527;50.892;16.706;2024-02-04T10:04:53;12.00;99.90
5017;DHT22;2527;50.892;16.706;2024-02-04T10:07:19;12.00;99.90
5017;DHT22;2527;50.892;16.706;2024-02-04T10:09:44;12.00;99.90
5017;DHT22;2527;50.892;16.706;2024-02-04T10:12:10;12.00;99.90
5017;DHT22;2527;50.892;16.706;2024-02-04T10:14:36;12.00;99.90
5017;DHT22;2527;50.892;16.706;2024-02-04T10:17:01;12.00;99.90
5017;DHT22;2527;50.892;16.706;2024-02-04T10:19:27;12.00;99.90
5017;DHT22;2527;50.892;16.706;2024-02-04T10:22:00;12.00;99.90
5017;DHT22;2527;50.892;16.706;2024-02-04T10:24:27;12.00;99.90
5017;DHT22;2527;50.892;16.706;2024-02-04T10:27:04;12.00;99.90
5017;DHT22;2527;50.892;16.706;2024-02-04T10:29:30;12.10;99.90
5017;DHT22;2527;50.892;16.706;2024-02-04T10:31:59;12.00;99.90
5017;DHT22;2527;50.892;16.706;2024-02-04T10:34:27;12.00;99.90
5017;DHT22;2527;50.892;16.706;2024-02-04T10:36:58;11.90;99.90
5017;DHT22;2527;50.892;16.706;2024-02-04T10:39:23;12.00;99.90
5017;DHT22;2527;50.892;16.706;2024-02-04T10:41:50;12.00;99.90
5017;DHT22;2527;50.892;16.706;2024-02-04T10:44:22;12.00;99.90
5017;DHT22;2527;50.892;16.706;2024-02-04T10:46:49;12.00;99.90
5017;DHT22;2527;50.892;16.706;2024-02-04T10:49:15;12.00;99.90
5017;DHT22;2527;50.892;16.706;2024-02-04T10:51:41;12.00;99.90
5017;DHT22;2527;50.892;16.706;2024-02-04T10:54:07;11.90;99.90
5017;DHT22;2527;50.892;16.706;2024-02-04T10:58:59;11.90;99.90
5017;DHT22;2527;50.892;16.706;2024-02-04T11:01:26;12.00;99.90
5017;DHT22;2527;50.892;16.706;2024-02-04T11:03:52;12.00;99.90
5017;DHT22;2527;50.892;16.706;2024-02-04T11:06:19;12.00;99.90
5017;DHT22;2527;50.892;16.706;2024-02-04T11:08:47;12.00;99.90
5017;DHT22;2527;50.892;16.706;2024-02-04T11:11:12;12.00;99.90
5017;DHT22;2527;50.892;16.706;2024-02-04T11:13:39;12.10;99.90
5017;DHT22;2527;50.892;16.706;2024-02-04T11:16:08;12.10;99.90
5017;DHT22;2527;50.892;16.706;2024-02-04T11:23:42;12.20;99.90
5017;DHT22;2527;50.892;16.706;2024-02-04T11:26:12;12.20;99.90
5017;DHT22;2527;50.892;16.706;2024-02-04T11:28:39;12.20;99.90
5017;DHT22;2527;50.892;16.706;2024-02-04T11:31:05;12.20;99.90
5017;DHT22;2527;50.892;16.706;2024-02-04T11:33:38;12.20;99.90
5017;DHT22;2527;50.892;16.706;2024-02-04T11:36:05;12.20;99.90
5017;DHT22;2527;50.892;16.706;2024-02-04T11:38:36;12.20;99.90
5017;DHT22;2527;50.892;16.706;2024-02-04T11:41:03;12.20;99.90
5017;DHT22;2527;50.892;16.706;2024-02-04T11:43:31;12.20;99.90
5017;DHT22;2527;50.892;16.706;2024-02-04T11:45:57;12.20;99.90
5017;DHT22;2527;50.892;16.706;2024-02-04T11:48:32;12.20;99.90
5017;DHT22;2527;50.892;16.706;2024-02-04T11:50:58;12.20;99.90
5017;DHT22;2527;50.892;16.706;2024-02-04T11:53:27;12.20;99.90
5017;DHT22;2527;50.892;16.706;2024-02-04T11:55:57;12.20;99.90
5017;DHT22;2527;50.892;16.706;2024-02-04T11:58:24;12.20;99.90
5017;DHT22;2527;50.892;16.706;2024-02-04T12:00:51;12.20;99.90
5017;DHT22;2527;50.892;16.706;2024-02-04T12:03:28;12.20;99.90
5017;DHT22;2527;50.892;16.706;2024-02-04T12:05:54;12.20;99.90
5017;DHT22;2527;50.892;16.706;2024-02-04T12:08:20;12.20;99.90
5017;DHT22;2527;50.892;16.706;2024-02-04T12:10:48;12.20;99.90
5017;DHT22;2527;50.892;16.706;2024-02-04T12:13:14;12.20;99.90
5017;DHT22;2527;50.892;16.706;2024-02-04T12:15:40;12.20;99.90
5017;DHT22;2527;50.892;16.706;2024-02-04T12:18:10;12.20;99.90
5017;DHT22;2527;50.892;16.706;2024-02-04T12:20:36;12.20;99.90
5017;DHT22;2527;50.892;16.706;2024-02-04T12:23:05;12.30;99.90
5017;DHT22;2527;50.892;16.706;2024-02-04T12:25:31;12.30;99.90
5017;DHT22;2527;50.892;16.706;2024-02-04T12:28:00;12.30;99.90
5017;DHT22;2527;50.892;16.706;2024-02-04T12:30:30;12.30;99.90
5017;DHT22;2527;50.892;16.706;2024-02-04T12:32:59;12.30;99.90
5017;DHT22;2527;50.892;16.706;2024-02-04T12:35:26;12.30;99.90
5017;DHT22;2527;50.892;16.706;2024-02-04T12:37:56;12.40;99.90
5017;DHT22;2527;50.892;16.706;2024-02-04T12:40:22;12.40;99.90
5017;DHT22;2527;50.892;16.706;2024-02-04T12:43:06;12.30;99.90
5017;DHT22;2527;50.892;16.706;2024-02-04T12:45:32;12.30;99.90
5017;DHT22;2527;50.892;16.706;2024-02-04T12:47:58;12.30;99.90
5017;DHT22;2527;50.892;16.706;2024-02-04T12:50:24;12.40;99.90
5017;DHT22;2527;50.892;16.706;2024-02-04T12:53:01;12.40;99.90
5017;DHT22;2527;50.892;16.706;2024-02-04T12:55:30;12.40;99.90
5017;DHT22;2527;50.892;16.706;2024-02-04T13:00:30;12.40;99.90
5017;DHT22;2527;50.892;16.706;2024-02-04T13:02:56;12.40;99.90
5017;DHT22;2527;50.892;16.706;2024-02-04T13:05:22;12.40;99.90
5017;DHT22;2527;50.892;16.706;2024-02-04T13:08:00;12.50;99.90
5017;DHT22;2527;50.892;16.706;2024-02-04T13:10:34;12.50;99.90
5017;DHT22;2527;50.892;16.706;2024-02-04T13:15:26;12.50;99.90
5017;DHT22;2527;50.892;16.706;2024-02-04T13:17:52;12.50;99.90
5017;DHT22;2527;50.892;16.706;2024-02-04T13:20:18;12.50;99.90
5017;DHT22;2527;50.892;16.706;2024-02-04T13:22:43;12.50;99.90
5017;DHT22;2527;50.892;16.706;2024-02-04T13:25:09;12.60;99.90
5017;DHT22;2527;50.892;16.706;2024-02-04T13:27:43;12.60;99.90
5017;DHT22;2527;50.892;16.706;2024-02-04T13:30:08;12.60;99.90
5017;DHT22;2527;50.892;16.706;2024-02-04T13:32:40;12.60;99.90
5017;DHT22;2527;50.892;16.706;2024-02-04T13:35:07;12.60;99.90
5017;DHT22;2527;50.892;16.706;2024-02-04T13:37:37;12.60;99.90
5017;DHT22;2527;50.892;16.706;2024-02-04T13:40:04;12.60;99.90
5017;DHT22;2527;50.892;16.706;2024-02-04T13:42:32;12.50;99.90
5017;DHT22;2527;50.892;16.706;2024-02-04T13:44:58;12.50;99.90
5017;DHT22;2527;50.892;16.706;2024-02-04T13:47:25;12.50;99.90
5017;DHT22;2527;50.892;16.706;2024-02-04T13:49:50;12.40;99.90
5017;DHT22;2527;50.892;16.706;2024-02-04T13:52:16;12.40;99.90
5017;DHT22;2527;50.892;16.706;2024-02-04T13:54:42;12.40;99.90
5017;DHT22;2527;50.892;16.706;2024-02-04T13:57:07;12.40;99.90
5017;DHT22;2527;50.892;16.706;2024-02-04T13:59:33;12.40;99.90
5017;DHT22;2527;50.892;16.706;2024-02-04T14:01:59;12.40;99.90
5017;DHT22;2527;50.892;16.706;2024-02-04T14:04:25;12.40;99.90
5017;DHT22;2527;50.892;16.706;2024-02-04T14:06:51;12.40;99.90
5017;DHT22;2527;50.892;16.706;2024-02-04T14:09:17;12.40;99.90
5017;DHT22;2527;50.892;16.706;2024-02-04T14:11:43;12.40;99.90
5017;DHT22;2527;50.892;16.706;2024-02-04T14:14:09;12.40;99.90
5017;DHT22;2527;50.892;16.706;2024-02-04T14:16:35;12.40;99.90
5017;DHT22;2527;50.892;16.706;2024-02-04T14:19:03;12.40;99.90
5017;DHT22;2527;50.892;16.706;2024-02-04T14:21:29;12.40;99.90
5017;DHT22;2527;50.892;16.706;2024-02-04T14:23:55;12.40;99.90
5017;DHT22;2527;50.892;16.706;2024-02-04T14:26:22;12.40;99.90
5017;DHT22;2527;50.892;16.706;2024-02-04T14:28:47;12.40;99.90
5017;DHT22;2527;50.892;16.706;2024-02-04T14:31:13;12.40;99.90
5017;DHT22;2527;50.892;16.706;2024-02-04T14:33:40;12.30;99.90
5017;DHT22;2527;50.892;16.706;2024-02-04T14:36:06;12.30;99.90
5017;DHT22;2527;50.892;16.706;2024-02-04T14:38:32;12.30;99.90
5017;DHT22;2527;50.892;16.706;2024-02-04T14:40:57;12.30;99.90
5017;DHT22;2527;50.892;16.706;2024-02-04T14:43:24;12.30;99.90
5017;DHT22;2527;50.892;16.706;2024-02-04T14:45:50;12.30;99.90
5017;DHT22;2527;50.892;16.706;2024-02-04T14:48:15;13.40;99.90
5017;DHT22;2527;50.892;16.706;2024-02-04T14:50:41;12.20;99.90
5017;DHT22;2527;50.892;16.706;2024-02-04T14:53:07;12.20;99.90
5017;DHT22;2527;50.892;16.706;2024-02-04T14:55:33;12.20;99.90
5017;DHT22;2527;50.892;16.706;2024-02-04T14:58:00;12.20;99.90
5017;DHT22;2527;50.892;16.706;2024-02-04T15:00:26;12.20;99.90
5017;DHT22;2527;50.892;16.706;2024-02-04T15:02:53;12.20;99.90
5017;DHT22;2527;50.892;16.706;2024-02-04T15:05:20;12.20;99.90
5017;DHT22;2527;50.892;16.706;2024-02-04T15:07:49;12.20;99.90
5017;DHT22;2527;50.892;16.706;2024-02-04T15:10:17;12.20;99.90
5017;DHT22;2527;50.892;16.706;2024-02-04T15:12:42;12.20;99.90
5017;DHT22;2527;50.892;16.706;2024-02-04T15:15:09;12.20;99.90
5017;DHT22;2527;50.892;16.706;2024-02-04T15:17:34;12.20;99.90
5017;DHT22;2527;50.892;16.706;2024-02-04T15:20:00;12.20;99.90
5017;DHT22;2527;50.892;16.706;2024-02-04T15:22:26;12.20;99.90
5017;DHT22;2527;50.892;16.706;2024-02-04T15:24:52;12.20;99.90
5017;DHT22;2527;50.892;16.706;2024-02-04T15:27:18;12.20;99.90
5017;DHT22;2527;50.892;16.706;2024-02-04T15:29:46;12.20;99.90
5017;DHT22;2527;50.892;16.706;2024-02-04T15:32:13;12.10;99.90
5017;DHT22;2527;50.892;16.706;2024-02-04T15:34:44;12.10;99.90
5017;DHT22;2527;50.892;16.706;2024-02-04T15:37:10;12.10;99.90
5017;DHT22;2527;50.892;16.706;2024-02-04T15:39:36;12.10;99.90
5017;DHT22;2527;50.892;16.706;2024-02-04T15:42:05;12.10;99.90
5017;DHT22;2527;50.892;16.706;2024-02-04T15:44:30;12.10;99.90
5017;DHT22;2527;50.892;16.706;2024-02-04T15:47:01;12.10;99.90
5017;DHT22;2527;50.892;16.706;2024-02-04T15:49:28;12.20;99.90
5017;DHT22;2527;50.892;16.706;2024-02-04T15:51:54;12.10;99.90
5017;DHT22;2527;50.892;16.706;2024-02-04T15:54:21;12.10;99.90
5017;DHT22;2527;50.892;16.706;2024-02-04T15:56:48;12.10;99.90
5017;DHT22;2527;50.892;16.706;2024-02-04T15:59:19;12.10;99.90